createdAt,value
2022-08-26T00:00:15.799Z,4.95
2022-08-26T00:02:43.936Z,4.70
2022-08-26T00:05:13.881Z,5.00
2022-08-26T00:07:42.581Z,4.90
2022-08-26T00:10:12.443Z,4.57
2022-08-26T00:12:41.263Z,4.53
2022-08-26T00:15:12.073Z,4.68
2022-08-26T00:17:40.492Z,5.10
2022-08-26T00:20:10.774Z,4.43
2022-08-26T00:22:40.600Z,4.82
2022-08-26T00:25:10.572Z,4.63
2022-08-26T00:27:39.695Z,5.35
2022-08-26T00:30:12.385Z,5.03
2022-08-26T00:32:41.692Z,4.70
2022-08-26T00:35:14.864Z,4.60
2022-08-26T00:37:44.569Z,4.68
2022-08-26T00:40:16.835Z,4.47
2022-08-26T00:42:46.244Z,4.80
2022-08-26T00:45:15.745Z,4.50
2022-08-26T00:47:48.566Z,5.28
2022-08-26T00:50:21.598Z,4.55
2022-08-26T00:52:52.887Z,4.75
2022-08-26T00:55:25.006Z,4.90
2022-08-26T00:58:03.285Z,5.53
2022-08-26T01:00:33.556Z,4.65
2022-08-26T01:03:05.232Z,5.07
2022-08-26T01:05:33.914Z,5.00
2022-08-26T01:08:03.752Z,5.00
2022-08-26T01:10:32.701Z,5.18
2022-08-26T01:13:03.650Z,5.13
2022-08-26T01:15:36.190Z,4.90
2022-08-26T01:18:05.475Z,4.85
2022-08-26T01:20:42.478Z,5.00
2022-08-26T01:23:13.199Z,4.97
2022-08-26T01:25:45.669Z,5.20
2022-08-26T01:28:17.568Z,4.87
2022-08-26T01:30:47.936Z,5.20
2022-08-26T01:33:20.167Z,6.47
2022-08-26T01:35:49.042Z,5.30
2022-08-26T01:38:19.186Z,5.15
2022-08-26T01:40:48.067Z,4.65
2022-08-26T01:43:24.255Z,5.00
2022-08-26T01:45:54.670Z,5.22
2022-08-26T01:48:27.612Z,4.72
2022-08-26T01:50:56.443Z,5.15
2022-08-26T01:53:27.109Z,5.93
2022-08-26T01:55:59.905Z,5.40
2022-08-26T01:58:32.016Z,5.55
2022-08-26T02:01:00.983Z,5.30
2022-08-26T02:03:31.487Z,5.15
2022-08-26T02:06:09.350Z,5.97
2022-08-26T02:08:42.814Z,5.68
2022-08-26T02:11:11.332Z,6.10
2022-08-26T02:13:41.978Z,5.32
2022-08-26T02:16:11.902Z,5.38
2022-08-26T02:18:42.922Z,5.47
2022-08-26T02:21:12.150Z,5.85
2022-08-26T02:23:41.949Z,5.50
2022-08-26T02:26:14.353Z,5.75
2022-08-26T02:28:52.456Z,6.28
2022-08-26T02:31:20.759Z,5.97
2022-08-26T02:33:48.991Z,6.78
2022-08-26T02:36:21.439Z,5.85
2022-08-26T02:38:51.014Z,6.13
2022-08-26T02:41:20.356Z,5.13
2022-08-26T02:43:51.312Z,5.60
2022-08-26T02:46:21.437Z,6.32
2022-08-26T02:48:56.226Z,5.90
2022-08-26T02:51:24.511Z,6.20
2022-08-26T02:53:54.279Z,6.18
2022-08-26T02:56:23.819Z,6.63
2022-08-26T02:58:51.984Z,6.15
2022-08-26T03:01:23.998Z,5.63
2022-08-26T03:03:54.107Z,6.15
2022-08-26T03:06:22.665Z,6.20
2022-08-26T03:08:50.852Z,6.22
2022-08-26T03:11:21.693Z,6.30
2022-08-26T03:13:49.953Z,5.68
2022-08-26T03:16:18.766Z,6.60
2022-08-26T03:18:52.347Z,6.13
2022-08-26T03:21:20.967Z,5.68
2022-08-26T03:23:51.882Z,6.70
2022-08-26T03:26:21.862Z,6.03
2022-08-26T03:29:04.240Z,6.45
2022-08-26T03:31:32.475Z,6.85
2022-08-26T03:34:01.141Z,6.10
2022-08-26T03:36:29.399Z,6.07
2022-08-26T03:38:57.594Z,6.50
2022-08-26T03:41:27.245Z,6.57
2022-08-26T03:43:58.478Z,7.65
2022-08-26T03:46:31.542Z,6.60
2022-08-26T03:48:59.831Z,6.95
2022-08-26T03:51:28.439Z,6.50
2022-08-26T03:53:57.132Z,6.63
2022-08-26T03:56:28.244Z,6.85
2022-08-26T03:58:56.371Z,6.90
2022-08-26T04:01:24.675Z,6.85
2022-08-26T04:04:01.765Z,7.28
2022-08-26T04:06:34.426Z,6.32
2022-08-26T04:09:05.705Z,7.20
2022-08-26T04:11:38.213Z,6.30
2022-08-26T04:14:11.217Z,6.63
2022-08-26T04:16:39.341Z,6.65
2022-08-26T04:19:07.708Z,6.68
2022-08-26T04:21:38.250Z,6.22
2022-08-26T04:24:11.356Z,6.35
2022-08-26T04:26:42.808Z,6.47
2022-08-26T04:29:15.302Z,7.25
2022-08-26T04:31:43.611Z,6.32
2022-08-26T04:34:14.243Z,6.45
2022-08-26T04:36:44.132Z,6.45
2022-08-26T04:39:16.548Z,7.05
2022-08-26T04:41:47.203Z,6.85
2022-08-26T04:44:16.756Z,6.82
2022-08-26T04:46:45.758Z,7.68
2022-08-26T04:49:15.069Z,6.72
2022-08-26T04:51:43.960Z,7.00
2022-08-26T04:54:12.216Z,6.88
2022-08-26T04:56:44.105Z,6.95
2022-08-26T04:59:18.189Z,6.90
2022-08-26T05:01:47.934Z,6.22
2022-08-26T05:04:19.092Z,6.72
2022-08-26T05:06:48.212Z,6.75
2022-08-26T05:09:16.475Z,7.22
2022-08-26T05:11:45.643Z,7.00
2022-08-26T05:14:18.945Z,6.65
2022-08-26T05:16:47.909Z,6.97
2022-08-26T05:19:18.804Z,7.22
2022-08-26T05:21:47.852Z,7.05
2022-08-26T05:24:16.668Z,6.97
2022-08-26T05:26:45.073Z,6.75
2022-08-26T05:29:14.063Z,7.15
2022-08-26T05:31:44.131Z,7.28
2022-08-26T05:34:12.596Z,6.82
2022-08-26T05:36:41.244Z,6.80
2022-08-26T05:39:10.549Z,7.05
2022-08-26T05:41:42.276Z,6.82
2022-08-26T05:44:12.944Z,6.93
2022-08-26T05:46:44.684Z,7.00
2022-08-26T05:49:15.899Z,7.53
2022-08-26T05:51:47.551Z,7.43
2022-08-26T05:54:21.308Z,7.60
2022-08-26T05:56:51.228Z,7.38
2022-08-26T05:59:21.357Z,7.20
2022-08-26T06:01:55.197Z,8.00
2022-08-26T06:04:26.764Z,6.93
2022-08-26T06:06:57.367Z,7.45
2022-08-26T06:09:26.681Z,7.20
2022-08-26T06:11:55.949Z,6.72
2022-08-26T06:14:25.954Z,7.32
2022-08-26T06:16:55.912Z,6.88
2022-08-26T06:19:24.549Z,6.93
2022-08-26T06:21:54.297Z,7.43
2022-08-26T06:24:41.017Z,7.38
2022-08-26T06:27:13.919Z,7.53
2022-08-26T06:29:43.504Z,7.45
2022-08-26T06:32:13.023Z,7.30
2022-08-26T06:34:41.453Z,7.03
2022-08-26T06:37:09.763Z,7.35
2022-08-26T06:39:40.214Z,7.28
2022-08-26T06:42:09.431Z,7.05
2022-08-26T06:44:41.017Z,6.82
2022-08-26T06:47:09.476Z,7.43
2022-08-26T06:49:39.784Z,7.70
2022-08-26T06:52:08.200Z,7.55
2022-08-26T06:54:37.095Z,7.18
2022-08-26T06:57:07.310Z,7.07
2022-08-26T06:59:35.492Z,7.00
2022-08-26T07:02:03.901Z,7.03
2022-08-26T07:04:32.513Z,7.93
2022-08-26T07:07:02.123Z,7.07
2022-08-26T07:09:33.137Z,7.35
2022-08-26T07:12:01.863Z,7.28
2022-08-26T07:14:31.910Z,7.07
2022-08-26T07:17:01.404Z,7.57
2022-08-26T07:19:31.450Z,6.90
2022-08-26T07:22:03.933Z,7.65
2022-08-26T07:24:32.915Z,6.72
2022-08-26T07:27:02.703Z,7.25
2022-08-26T07:29:31.453Z,7.88
2022-08-26T07:31:59.994Z,6.63
2022-08-26T07:34:28.718Z,6.90
2022-08-26T07:36:58.810Z,6.90
2022-08-26T07:39:28.571Z,7.15
2022-08-26T07:42:00.096Z,5.97
2022-08-26T07:44:28.469Z,6.45
2022-08-26T07:46:56.706Z,7.32
2022-08-26T07:49:27.182Z,6.63
2022-08-26T07:51:56.919Z,6.53
2022-08-26T07:54:26.972Z,6.63
2022-08-26T07:56:57.388Z,6.20
2022-08-26T07:59:26.388Z,6.82
2022-08-26T08:01:54.557Z,6.40
2022-08-26T08:04:26.542Z,6.55
2022-08-26T08:06:55.657Z,7.63
2022-08-26T08:09:24.841Z,6.43
2022-08-26T08:11:54.015Z,6.82
2022-08-26T08:14:23.567Z,6.70
2022-08-26T08:16:54.868Z,6.53
2022-08-26T08:19:28.417Z,6.40
2022-08-26T08:22:05.288Z,7.20
2022-08-26T08:24:45.579Z,6.30
2022-08-26T08:27:22.799Z,7.32
2022-08-26T08:29:55.152Z,6.13
2022-08-26T08:32:24.239Z,6.13
2022-08-26T08:34:52.961Z,6.38
2022-08-26T08:37:21.488Z,6.85
2022-08-26T08:39:50.133Z,7.07
2022-08-26T08:42:45.752Z,6.68
2022-08-26T08:45:20.902Z,6.30
2022-08-26T08:47:54.642Z,6.30
2022-08-26T08:50:28.325Z,5.63
2022-08-26T08:53:04.161Z,6.32
2022-08-26T08:55:47.965Z,6.40
2022-08-26T08:58:20.668Z,6.70
2022-08-26T09:00:59.981Z,6.40
2022-08-26T09:03:44.465Z,5.95
2022-08-26T09:06:18.684Z,6.45
2022-08-26T09:08:49.920Z,5.95
2022-08-26T09:11:20.194Z,6.05
2022-08-26T09:13:55.807Z,6.88
2022-08-26T09:16:36.362Z,7.20
2022-08-26T09:19:14.537Z,5.40
2022-08-26T09:21:47.308Z,5.50
2022-08-26T09:24:22.255Z,5.82
2022-08-26T09:26:58.958Z,5.55
2022-08-26T09:29:29.219Z,5.30
2022-08-26T09:32:19.595Z,6.03
2022-08-26T09:34:58.339Z,5.10
2022-08-26T09:37:38.694Z,5.35
2022-08-26T09:40:24.730Z,5.38
2022-08-26T09:43:16.163Z,5.57
2022-08-26T09:45:58.485Z,5.82
2022-08-26T09:48:34.824Z,5.38
2022-08-26T09:51:07.826Z,5.38
2022-08-26T09:53:50.732Z,5.47
2022-08-26T09:58:53.993Z,5.50
2022-08-26T10:01:31.885Z,6.10
2022-08-26T10:04:11.118Z,5.40
2022-08-26T10:06:42.872Z,5.25
2022-08-26T10:09:18.393Z,5.40
2022-08-26T10:11:51.508Z,5.28
2022-08-26T10:14:25.620Z,4.97
2022-08-26T10:17:00.692Z,5.45
2022-08-26T10:19:41.657Z,5.07
2022-08-26T10:22:28.997Z,4.57
2022-08-26T10:27:37.996Z,5.22
2022-08-26T10:30:11.992Z,5.70
2022-08-26T10:32:42.666Z,5.10
2022-08-26T10:35:16.051Z,4.75
2022-08-26T10:37:47.884Z,4.32
2022-08-26T10:40:24.277Z,4.55
2022-08-26T10:42:57.060Z,4.35
2022-08-26T10:45:28.455Z,4.70
2022-08-26T10:48:02.556Z,4.57
2022-08-26T10:50:37.436Z,4.65
2022-08-26T10:53:11.686Z,4.13
2022-08-26T10:55:44.531Z,4.80
2022-08-26T10:58:27.836Z,3.85
2022-08-26T11:01:23.011Z,3.17
2022-08-26T11:03:58.749Z,3.33
2022-08-26T11:06:29.984Z,3.72
2022-08-26T11:08:59.790Z,3.40
2022-08-26T11:11:58.520Z,3.30
2022-08-26T11:14:56.145Z,3.28
2022-08-26T11:18:02.749Z,3.70
2022-08-26T11:20:37.505Z,3.85
2022-08-26T11:23:50.579Z,3.08
2022-08-26T11:26:37.862Z,3.67
2022-08-26T11:29:13.002Z,3.67
2022-08-26T11:31:55.885Z,3.63
2022-08-26T11:37:15.804Z,3.53
2022-08-26T11:39:54.715Z,3.15
2022-08-26T11:42:32.069Z,3.60
2022-08-26T11:45:05.331Z,3.35
2022-08-26T11:47:33.886Z,3.50
2022-08-26T11:50:13.787Z,3.40
2022-08-26T11:52:42.143Z,3.35
2022-08-26T11:55:12.270Z,3.30
2022-08-26T11:57:47.026Z,3.20
2022-08-26T12:00:22.711Z,2.92
2022-08-26T12:02:52.355Z,3.00
2022-08-26T12:05:29.566Z,2.78
2022-08-26T12:08:04.238Z,3.08
2022-08-26T12:10:36.041Z,3.30
2022-08-26T12:13:07.571Z,2.83
2022-08-26T12:15:36.883Z,3.20
2022-08-26T12:18:28.929Z,3.25
2022-08-26T12:21:00.983Z,2.85
2022-08-26T12:23:41.556Z,3.30
2022-08-26T12:26:14.617Z,3.20
2022-08-26T12:28:46.927Z,3.42
2022-08-26T12:31:26.920Z,3.45
2022-08-26T12:33:56.541Z,3.50
2022-08-26T12:36:31.549Z,3.30
2022-08-26T12:41:44.389Z,3.67
2022-08-26T12:44:53.725Z,3.78
2022-08-26T12:47:40.071Z,4.68
2022-08-26T12:50:19.160Z,4.57
2022-08-26T12:52:58.873Z,4.47
2022-08-26T12:55:37.603Z,4.28
2022-08-26T12:58:23.870Z,3.92
2022-08-26T13:00:54.909Z,3.17
2022-08-26T13:03:43.826Z,3.13
2022-08-26T13:06:16.105Z,3.00
2022-08-26T13:08:45.903Z,3.10
2022-08-26T13:11:20.712Z,3.13
2022-08-26T13:13:50.471Z,3.20
2022-08-26T13:16:20.767Z,2.95
2022-08-26T13:18:52.801Z,3.05
2022-08-26T13:21:23.118Z,2.63
2022-08-26T13:23:54.386Z,2.78
2022-08-26T13:26:23.259Z,2.28
2022-08-26T13:29:01.455Z,2.50
2022-08-26T13:31:34.645Z,2.42
2022-08-26T13:34:03.876Z,2.20
2022-08-26T13:36:32.543Z,2.35
2022-08-26T13:39:00.863Z,2.10
2022-08-26T13:41:29.860Z,2.38
2022-08-26T13:43:59.612Z,2.47
2022-08-26T13:46:28.758Z,2.15
2022-08-26T13:48:58.842Z,1.80
2022-08-26T13:51:28.240Z,2.05
2022-08-26T13:53:56.677Z,1.88
2022-08-26T13:56:27.329Z,2.28
2022-08-26T13:58:55.503Z,2.65
2022-08-26T14:01:24.467Z,3.35
2022-08-26T14:03:52.723Z,3.63
2022-08-26T14:06:23.178Z,3.47
2022-08-26T14:08:51.287Z,3.33
2022-08-26T14:11:19.692Z,3.17
2022-08-26T14:13:47.801Z,3.47
2022-08-26T14:16:22.103Z,2.80
2022-08-26T14:18:51.030Z,3.17
2022-08-26T14:21:21.579Z,3.70
2022-08-26T14:23:49.885Z,3.60
2022-08-26T14:26:28.921Z,4.32
2022-08-26T14:28:58.765Z,4.13
2022-08-26T14:31:29.239Z,4.13
2022-08-26T14:33:59.486Z,4.55
2022-08-26T14:36:29.016Z,4.35
2022-08-26T14:39:00.205Z,4.05
2022-08-26T14:41:29.546Z,4.30
2022-08-26T14:44:00.883Z,4.47
2022-08-26T14:46:31.257Z,4.90
2022-08-26T14:49:01.726Z,4.70
2022-08-26T14:51:32.528Z,4.82
2022-08-26T14:54:13.000Z,5.38
2022-08-26T14:56:45.632Z,5.07
2022-08-26T15:01:42.331Z,6.72
2022-08-26T15:04:10.638Z,7.88
2022-08-26T15:06:40.302Z,7.72
2022-08-26T15:09:08.572Z,8.30
2022-08-26T15:11:36.751Z,7.20
2022-08-26T15:14:05.052Z,7.65
2022-08-26T15:16:34.188Z,7.03
2022-08-26T15:19:04.242Z,6.90
2022-08-26T15:21:32.628Z,6.78
2022-08-26T15:24:03.287Z,6.88
2022-08-26T15:26:33.052Z,6.68
2022-08-26T15:29:04.835Z,7.68
2022-08-26T15:31:35.228Z,8.00
2022-08-26T15:34:06.280Z,8.63
2022-08-26T15:36:35.631Z,9.05
2022-08-26T15:39:07.910Z,9.60
2022-08-26T15:41:38.187Z,11.05
2022-08-26T15:44:07.693Z,10.55
2022-08-26T15:46:37.451Z,10.77
2022-08-26T15:49:07.103Z,11.90
2022-08-26T15:51:45.712Z,11.45
2022-08-26T15:54:16.710Z,11.15
2022-08-26T15:56:45.507Z,13.23
2022-08-26T15:59:16.378Z,12.30
2022-08-26T16:01:45.058Z,12.32
2022-08-26T16:04:13.962Z,14.75
2022-08-26T16:06:43.531Z,13.73
2022-08-26T16:09:12.115Z,13.25
2022-08-26T16:11:41.601Z,13.77
2022-08-26T16:14:09.970Z,13.55
2022-08-26T16:16:39.266Z,13.60
2022-08-26T16:19:07.788Z,14.98
2022-08-26T16:21:36.492Z,16.48
2022-08-26T16:24:05.944Z,16.02
2022-08-26T16:26:36.490Z,15.90
2022-08-26T16:29:08.539Z,16.92
2022-08-26T16:31:38.424Z,17.60
2022-08-26T16:34:06.822Z,16.27
2022-08-26T16:36:35.346Z,17.15
2022-08-26T16:39:05.539Z,17.00
2022-08-26T16:41:33.684Z,17.38
2022-08-26T16:44:01.907Z,17.73
2022-08-26T16:46:31.600Z,17.08
2022-08-26T16:49:01.536Z,16.80
2022-08-26T16:51:29.774Z,16.40
2022-08-26T16:53:59.826Z,18.13
2022-08-26T16:56:34.246Z,16.30
2022-08-26T16:59:03.109Z,15.90
2022-08-26T17:01:32.728Z,16.13
2022-08-26T17:04:01.225Z,15.95
2022-08-26T17:06:29.796Z,15.15
2022-08-26T17:08:58.320Z,14.80
2022-08-26T17:11:26.472Z,15.77
2022-08-26T17:13:54.714Z,15.02
2022-08-26T17:16:26.618Z,15.00
2022-08-26T17:18:57.926Z,15.02
2022-08-26T17:21:27.040Z,14.73
2022-08-26T17:23:56.234Z,14.60
2022-08-26T17:26:24.789Z,15.25
2022-08-26T17:28:52.991Z,14.73
2022-08-26T17:31:24.513Z,14.13
2022-08-26T17:33:53.814Z,13.93
2022-08-26T17:36:27.646Z,14.50
2022-08-26T17:38:57.087Z,13.23
2022-08-26T17:41:25.878Z,14.88
2022-08-26T17:43:54.112Z,13.77
2022-08-26T17:46:22.565Z,15.45
2022-08-26T17:48:50.734Z,14.60
2022-08-26T17:51:20.270Z,13.20
2022-08-26T17:53:50.426Z,13.88
2022-08-26T17:56:23.844Z,13.43
2022-08-26T17:58:53.012Z,12.85
2022-08-26T18:01:21.885Z,13.18
2022-08-26T18:03:51.152Z,14.27
2022-08-26T18:06:20.260Z,13.18
2022-08-26T18:08:49.786Z,13.30
2022-08-26T18:11:20.267Z,12.63
2022-08-26T18:13:48.963Z,13.90
2022-08-26T18:16:18.809Z,14.13
2022-08-26T18:18:47.817Z,12.30
2022-08-26T18:21:17.724Z,12.98
2022-08-26T18:23:46.644Z,13.88
2022-08-26T18:26:19.875Z,13.45
2022-08-26T18:28:48.427Z,13.18
2022-08-26T18:31:16.785Z,12.63
2022-08-26T18:33:45.051Z,12.68
2022-08-26T18:36:18.459Z,13.80
2022-08-26T18:38:47.163Z,13.10
2022-08-26T18:41:21.571Z,13.60
2022-08-26T18:43:50.558Z,12.85
2022-08-26T18:46:20.328Z,13.52
2022-08-26T18:48:50.987Z,12.75
2022-08-26T18:51:21.361Z,12.35
2022-08-26T18:53:49.603Z,12.20
2022-08-26T18:56:19.704Z,13.52
2022-08-26T18:58:47.906Z,12.68
2022-08-26T19:01:17.633Z,13.18
2022-08-26T19:03:46.055Z,12.93
2022-08-26T19:06:15.654Z,11.95
2022-08-26T19:08:44.743Z,12.48
2022-08-26T19:11:13.986Z,12.48
2022-08-26T19:13:44.389Z,12.43
2022-08-26T19:16:17.522Z,12.18
2022-08-26T19:18:45.905Z,11.68
2022-08-26T19:21:14.117Z,11.75
2022-08-26T19:23:42.432Z,12.38
2022-08-26T19:26:11.509Z,12.63
2022-08-26T19:28:40.747Z,12.38
2022-08-26T19:31:11.587Z,12.25
2022-08-26T19:33:41.772Z,13.90
2022-08-26T19:36:15.148Z,12.13
2022-08-26T19:38:44.096Z,11.45
2022-08-26T19:41:14.331Z,12.18
2022-08-26T19:43:43.718Z,12.50
2022-08-26T19:46:18.390Z,12.73
2022-08-26T19:48:47.782Z,12.93
2022-08-26T19:51:16.732Z,12.82
2022-08-26T19:53:45.429Z,13.57
2022-08-26T19:56:14.304Z,11.90
2022-08-26T19:58:43.321Z,11.98
2022-08-26T20:01:12.225Z,12.18
2022-08-26T20:03:42.089Z,12.30
2022-08-26T20:06:12.263Z,11.65
2022-08-26T20:08:41.709Z,11.20
2022-08-26T20:11:12.218Z,13.10
2022-08-26T20:13:41.296Z,10.77
2022-08-26T20:16:10.359Z,10.82
2022-08-26T20:18:56.298Z,11.90
2022-08-26T20:21:29.256Z,13.20
2022-08-26T20:24:00.546Z,10.90
2022-08-26T20:26:29.880Z,11.45
2022-08-26T20:28:58.266Z,11.18
2022-08-26T20:31:27.463Z,11.70
2022-08-26T20:33:56.385Z,11.98
2022-08-26T20:36:27.882Z,11.25
2022-08-26T20:38:56.978Z,11.30
2022-08-26T20:41:26.476Z,12.38
2022-08-26T20:43:54.865Z,12.10
2022-08-26T20:46:25.129Z,12.32
2022-08-26T20:48:55.671Z,11.68
2022-08-26T20:51:29.758Z,11.57
2022-08-26T20:53:58.201Z,11.40
2022-08-26T20:56:26.635Z,11.52
2022-08-26T20:58:58.696Z,10.52
2022-08-26T21:01:30.616Z,11.20
2022-08-26T21:03:59.265Z,10.57
2022-08-26T21:06:29.065Z,10.82
2022-08-26T21:08:57.921Z,10.10
2022-08-26T21:11:26.307Z,9.45
2022-08-26T21:14:15.903Z,11.90
2022-08-26T21:16:43.965Z,9.70
2022-08-26T21:19:14.591Z,9.57
2022-08-26T21:21:44.931Z,8.95
2022-08-26T21:24:14.450Z,9.48
2022-08-26T21:26:42.762Z,10.07
2022-08-26T21:29:10.963Z,9.13
2022-08-26T21:31:45.035Z,9.48
2022-08-26T21:34:14.852Z,8.73
2022-08-26T21:36:44.853Z,9.15
2022-08-26T21:39:13.831Z,9.15
2022-08-26T21:41:43.254Z,8.68
2022-08-26T21:44:12.237Z,8.88
2022-08-26T21:46:40.981Z,9.60
2022-08-26T21:49:10.856Z,8.70
2022-08-26T21:51:41.938Z,8.32
2022-08-26T21:54:12.448Z,8.63
2022-08-26T21:56:44.245Z,9.40
2022-08-26T21:59:13.525Z,9.00
2022-08-26T22:01:42.157Z,8.82
2022-08-26T22:04:11.537Z,9.75
2022-08-26T22:06:44.721Z,8.55
2022-08-26T22:09:15.694Z,9.68
2022-08-26T22:11:44.399Z,9.13
2022-08-26T22:14:12.716Z,8.13
2022-08-26T22:16:41.191Z,8.90
2022-08-26T22:19:20.008Z,8.27
2022-08-26T22:21:50.976Z,8.18
2022-08-26T22:24:22.968Z,8.23
2022-08-26T22:26:51.419Z,8.35
2022-08-26T22:29:20.136Z,8.05
2022-08-26T22:31:48.299Z,8.82
2022-08-26T22:34:19.462Z,8.30
2022-08-26T22:36:49.951Z,8.00
2022-08-26T22:39:23.109Z,8.52
2022-08-26T22:44:21.654Z,7.57
2022-08-26T22:46:51.575Z,8.60
2022-08-26T22:49:19.702Z,7.90
2022-08-26T22:51:48.252Z,8.07
2022-08-26T22:54:17.606Z,8.18
2022-08-26T22:56:47.224Z,8.05
2022-08-26T22:59:16.267Z,8.07
2022-08-26T23:01:46.434Z,7.90
2022-08-26T23:04:15.280Z,7.90
2022-08-26T23:06:47.693Z,8.65
2022-08-26T23:09:17.931Z,8.82
2022-08-26T23:11:48.578Z,7.85
2022-08-26T23:14:17.763Z,8.25
2022-08-26T23:16:46.135Z,8.68
2022-08-26T23:19:15.871Z,8.05
2022-08-26T23:21:44.208Z,7.93
2022-08-26T23:24:12.895Z,7.90
2022-08-26T23:26:42.540Z,7.47
2022-08-26T23:29:14.912Z,8.32
2022-08-26T23:31:43.768Z,8.05
2022-08-26T23:34:26.699Z,7.78
2022-08-26T23:36:57.961Z,8.13
2022-08-26T23:39:26.533Z,8.00
2022-08-26T23:41:54.746Z,7.22
2022-08-26T23:44:25.910Z,8.27
2022-08-26T23:46:54.005Z,8.00
2022-08-26T23:49:22.134Z,8.48
2022-08-26T23:52:07.836Z,8.25
2022-08-26T23:54:36.027Z,7.32
2022-08-26T23:57:04.167Z,7.63
2022-08-26T23:59:33.893Z,7.68
